Beltdiep — PBYF — position and weather

sailwx.info

Track history (hours):
 
Tides and Currents Weather Stations Pressure Air Temp Water Temp Dewpoint Dewpoint Depression Visibility Wind Speed Wind Dir Waves Ship Positions

Beltdiep

Last reported at 2017-May-04 12:08 UTC. Time now 2017-May-28 01:03 UTC.
Position N 45°57' W 000°57'.
Warning: this ship's position is 23 days out of date.

Length 107 m; draft 5.4 m.

Type: Cargo ship. MMSI: 246671000.

Date/timePositionNaut miles runAvg speedWind from/ knotsBaromVisibWave heightAir tempDewpointWater temp
2017-May-04 12:08N 45°57' W 000°57'0 0.6
2017-May-04 12:00N 45°57' W 000°57'1 2.0
2017-May-04 11:27N 45°56' W 000°57'2 5.2
2017-May-04 11:00N 45°56' W 001°00'2 4.3
2017-May-04 10:30N 45°58' W 001°02'510.0
2017-May-04 10:00N 45°59' W 001°09'611.1
2017-May-04 09:30N 46°03' W 001°15'3 6.5
2017-May-04 09:00N 46°06' W 001°18'4 7.2
2017-May-04 08:30N 46°06' W 001°23'4 7.6
2017-May-04 08:00N 46°07' W 001°28'4 7.6
2017-May-04 07:30N 46°08' W 001°34'4 7.7
2017-May-04 07:00N 46°08' W 001°39'4 8.0
2017-May-04 06:29N 46°10' W 001°44'4 8.1
2017-May-04 06:00N 46°13' W 001°49'4 8.1
2017-May-04 05:30N 46°15' W 001°54'4 8.1
2017-May-04 05:00N 46°17' W 001°58'4 8.0
2017-May-04 04:30N 46°20' W 002°03'4 8.1
2017-May-04 04:00N 46°22' W 002°08'4 8.1
2017-May-04 03:30N 46°24' W 002°13'4 8.1
2017-May-04 03:00N 46°26' W 002°18'4 8.2
2017-May-04 02:29N 46°28' W 002°24'4 8.1
2017-May-04 02:00N 46°30' W 002°29'4 8.2
2017-May-04 01:30N 46°32' W 002°34'47 7.9
2017-May-03 19:33N 46°57' W 003°31'8 8.0
2017-May-03 18:31N 47°01' W 003°41'0 8.1
2017-May-03 18:30N 47°02' W 003°42'5 8.0
2017-May-03 17:54N 47°04' W 003°48'4 8.1
2017-May-03 17:28N 47°06' W 003°52'4 8.0
2017-May-03 17:00N 47°08' W 003°57'9 7.9
2017-May-03 15:55N 47°12' W 004°08'3 7.8
2017-May-03 15:30N 47°14' W 004°12'4 7.8
2017-May-03 15:00N 47°16' W 004°17'37 8.0
2017-May-03 10:22N 47°37' W 005°02'3 9.1
2017-May-03 09:59N 47°39' W 005°05'4 9.0
2017-May-03 09:30N 47°42' W 005°10'4 8.9
2017-May-03 09:00N 47°45' W 005°15'5 8.6
2017-May-03 08:26N 47°48' W 005°21'4 8.6
2017-May-03 08:00N 47°50' W 005°25'12 8.6
2017-May-03 06:33N 47°58' W 005°40'6 9.4
2017-May-03 05:53N 48°01' W 005°48'52 9.9
2017-May-03 00:40N 48°53' W 005°45'10610.0
2017-May-02 14:06N 49°48' W 003°26'610.0
2017-May-02 13:30N 49°51' W 003°18'5 9.5
2017-May-02 13:01N 49°53' W 003°11'8 9.1
2017-May-02 12:09N 49°57' W 003°01'1 9.0
2017-May-02 12:01N 49°58' W 002°59'4 8.9
2017-May-02 11:30N 49°60' W 002°53'5 8.9
2017-May-02 10:59N 50°01' W 002°46'5 9.1
2017-May-02 10:26N 50°03' W 002°39'9112.3
2017-May-02 03:03N 50°28' W 000°22'110.9
2017-May-02 02:59N 50°28' W 000°21'510.6
2017-May-02 02:30N 50°29' W 000°13'510.1
2017-May-02 02:00N 50°30' W 000°05'5 9.5
2017-May-02 01:30N 50°32' E 000°02'5 9.2
2017-May-02 01:00N 50°33' E 000°09'4 8.9
2017-May-02 00:30N 50°34' E 000°15'4 8.9
2017-May-02 00:00N 50°36' E 000°22'5 9.1
2017-May-01 23:30N 50°37' E 000°29'5 9.7
2017-May-01 23:00N 50°38' E 000°36'510.2
2017-May-01 22:30N 50°41' E 000°43'510.6
2017-May-01 22:00N 50°45' E 000°49'611.3
2017-May-01 21:30N 50°48' E 000°57'1211.6
2017-May-01 20:28N 50°56' E 001°11'511.4
2017-May-01 20:00N 50°59' E 001°18'510.7
2017-May-01 19:30N 51°02' E 001°24'510.0
2017-May-01 19:00N 51°06' E 001°30'5 9.1
2017-May-01 18:30N 51°09' E 001°35'4 8.5
2017-May-01 18:00N 51°11' E 001°41'4 8.4
2017-May-01 17:30N 51°14' E 001°46'4 7.6
2017-May-01 17:00N 51°18' E 001°48'4 7.4
2017-May-01 16:30N 51°21' E 001°52'4 7.5
2017-May-01 16:00N 51°24' E 001°56'4 7.5
2017-May-01 15:30N 51°26' E 001°59'4 8.9
2017-May-01 15:00N 51°30' E 002°04'510.1
2017-May-01 14:30N 51°34' E 002°09'1111.2
2017-May-01 13:29N 51°42' E 002°21'9410.9
2017-May-01 04:51N 52°56' E 003°57'16311.1
2017-Apr-30 14:08N 54°01' E 008°09'811.5
2017-Apr-30 13:27N 53°60' E 008°22'510.5
2017-Apr-30 13:00N 53°59' E 008°30'5 9.3
2017-Apr-30 12:30N 53°57' E 008°37'4 8.5
2017-Apr-30 12:00N 53°54' E 008°42'5 9.4
2017-Apr-30 11:30N 53°51' E 008°47'611.5
2017-Apr-30 11:00N 53°51' E 008°57'713.3
2017-Apr-30 10:31N 53°53' E 009°08'1 1.7
2017-Apr-30 10:00N 53°54' E 009°09'1 2.7
2017-Apr-30 09:30N 53°55' E 009°10'4 8.7
2017-Apr-30 09:00N 53°58' E 009°15'4 8.2
2017-Apr-30 08:30N 54°02' E 009°18'4 8.4
2017-Apr-30 08:00N 54°06' E 009°20'3 5.4
2017-Apr-30 07:22N 54°09' E 009°22'0 0.1
2017-Apr-30 06:56N 54°09' E 009°22'0 0.0
2017-Apr-30 06:25N 54°09' E 009°22'3 5.2
2017-Apr-30 05:52N 54°10' E 009°26'3 8.2
2017-Apr-30 05:27N 54°11' E 009°31'45 3.9
2017-Apr-29 17:53N 54°35' E 010°37'3 9.1
2017-Apr-29 17:30N 54°35' E 010°43'611.7
2017-Apr-29 17:00N 54°36' E 010°53'612.1
2017-Apr-29 16:30N 54°36' E 011°04'612.2
2017-Apr-29 16:00N 54°35' E 011°14'612.7
2017-Apr-29 15:30N 54°33' E 011°24'612.5
2017-Apr-29 15:00N 54°30' E 011°34'1811.8
2017-Apr-29 13:30N 54°27' E 012°04'510.1
2017-Apr-29 13:00N 54°29' E 012°11'611.8
2017-Apr-29 12:30N 54°35' E 012°14'611.6
2017-Apr-29 12:00N 54°39' E 012°21'4911.6
2017-Apr-29 07:50N 54°59' E 013°38'411.8
2017-Apr-29 07:30N 55°00' E 013°44'611.6
2017-Apr-29 06:59N 55°03' E 013°54'611.5
2017-Apr-29 06:30N 55°05' E 014°03'611.3
2017-Apr-29 06:00N 55°09' E 014°09'611.3
2017-Apr-29 05:30N 55°13' E 014°16'611.5
2017-Apr-29 05:00N 55°18' E 014°22'611.5
2017-Apr-29 04:30N 55°22' E 014°29'611.7
2017-Apr-29 04:00N 55°27' E 014°35'611.3
2017-Apr-29 03:30N 55°30' E 014°44'611.1
2017-Apr-29 03:00N 55°32' E 014°53'611.2
2017-Apr-29 02:30N 55°35' E 015°01'611.4
2017-Apr-29 02:00N 55°37' E 015°10'611.3
2017-Apr-29 01:30N 55°40' E 015°19'611.4
2017-Apr-29 01:00N 55°43' E 015°28'611.5
2017-Apr-29 00:30N 55°46' E 015°37'611.4
2017-Apr-29 00:00N 55°48' E 015°46'611.5
2017-Apr-28 23:30N 55°51' E 015°55'611.6
2017-Apr-28 23:00N 55°54' E 016°03'611.5
2017-Apr-28 22:30N 55°57' E 016°12'611.3
2017-Apr-28 22:00N 56°01' E 016°20'611.6
2017-Apr-28 21:30N 56°03' E 016°29'611.6
2017-Apr-28 21:00N 56°07' E 016°38'611.2
2017-Apr-28 20:30N 56°10' E 016°46'611.6
2017-Apr-28 20:00N 56°16' E 016°50'611.5
2017-Apr-28 19:30N 56°21' E 016°53'611.6
2017-Apr-28 19:00N 56°26' E 016°57'611.5
2017-Apr-28 18:30N 56°32' E 017°01'611.4
2017-Apr-28 18:00N 56°37' E 017°04'611.4
2017-Apr-28 17:30N 56°42' E 017°08'611.5
2017-Apr-28 16:59N 56°48' E 017°11'15311.3
2017-Apr-28 03:25N 59°04' E 019°27'511.8
2017-Apr-28 03:00N 59°08' E 019°32'611.8
2017-Apr-28 02:30N 59°13' E 019°38'611.5
2017-Apr-28 02:00N 59°18' E 019°44'611.5
2017-Apr-28 01:30N 59°23' E 019°49'811.4
2017-Apr-28 00:46N 59°30' E 019°57'311.0
2017-Apr-28 00:30N 59°33' E 019°59'610.4
2017-Apr-27 23:57N 59°38' E 019°55'611.0
2017-Apr-27 23:27N 59°42' E 019°48'511.2
2017-Apr-27 23:00N 59°46' E 019°42'611.1
2017-Apr-27 22:30N 59°50' E 019°34'611.3
2017-Apr-27 22:00N 59°54' E 019°27'611.7
2017-Apr-27 21:30N 59°59' E 019°20'611.7
2017-Apr-27 21:00N 60°04' E 019°13'611.7
2017-Apr-27 20:30N 60°08' E 019°05'611.3
2017-Apr-27 20:00N 60°13' E 019°01'611.6
2017-Apr-27 19:30N 60°19' E 019°00'611.6
2017-Apr-27 18:59N 60°25' E 019°00'  
Track history (hours):
 
Tides and Currents Weather Stations Pressure Air Temp Water Temp Dewpoint Dewpoint Depression Visibility Wind Speed Wind Dir Waves Ship Positions

Beltdiep

Last reported at 2017-May-04 12:08 UTC. Time now 2017-May-28 01:03 UTC.
Position N 45°57' W 000°57'.
Warning: this ship's position is 23 days out of date.

Length 107 m; draft 5.4 m.

Type: Cargo ship. MMSI: 246671000.

Date/timePositionNaut miles runAvg speedWind from/ knotsBaromVisibWave heightAir tempDewpointWater temp
2017-May-04 12:08N 45°57' W 000°57'0 0.6
2017-May-04 12:00N 45°57' W 000°57'1 2.0
2017-May-04 11:27N 45°56' W 000°57'2 5.2
2017-May-04 11:00N 45°56' W 001°00'2 4.3
2017-May-04 10:30N 45°58' W 001°02'510.0
2017-May-04 10:00N 45°59' W 001°09'611.1
2017-May-04 09:30N 46°03' W 001°15'3 6.5
2017-May-04 09:00N 46°06' W 001°18'4 7.2
2017-May-04 08:30N 46°06' W 001°23'4 7.6
2017-May-04 08:00N 46°07' W 001°28'4 7.6
2017-May-04 07:30N 46°08' W 001°34'4 7.7
2017-May-04 07:00N 46°08' W 001°39'4 8.0
2017-May-04 06:29N 46°10' W 001°44'4 8.1
2017-May-04 06:00N 46°13' W 001°49'4 8.1
2017-May-04 05:30N 46°15' W 001°54'4 8.1
2017-May-04 05:00N 46°17' W 001°58'4 8.0
2017-May-04 04:30N 46°20' W 002°03'4 8.1
2017-May-04 04:00N 46°22' W 002°08'4 8.1
2017-May-04 03:30N 46°24' W 002°13'4 8.1
2017-May-04 03:00N 46°26' W 002°18'4 8.2
2017-May-04 02:29N 46°28' W 002°24'4 8.1
2017-May-04 02:00N 46°30' W 002°29'4 8.2
2017-May-04 01:30N 46°32' W 002°34'47 7.9
2017-May-03 19:33N 46°57' W 003°31'8 8.0
2017-May-03 18:31N 47°01' W 003°41'0 8.1
2017-May-03 18:30N 47°02' W 003°42'5 8.0
2017-May-03 17:54N 47°04' W 003°48'4 8.1
2017-May-03 17:28N 47°06' W 003°52'4 8.0
2017-May-03 17:00N 47°08' W 003°57'9 7.9
2017-May-03 15:55N 47°12' W 004°08'3 7.8
2017-May-03 15:30N 47°14' W 004°12'4 7.8
2017-May-03 15:00N 47°16' W 004°17'37 8.0
2017-May-03 10:22N 47°37' W 005°02'3 9.1
2017-May-03 09:59N 47°39' W 005°05'4 9.0
2017-May-03 09:30N 47°42' W 005°10'4 8.9
2017-May-03 09:00N 47°45' W 005°15'5 8.6
2017-May-03 08:26N 47°48' W 005°21'4 8.6
2017-May-03 08:00N 47°50' W 005°25'12 8.6
2017-May-03 06:33N 47°58' W 005°40'6 9.4
2017-May-03 05:53N 48°01' W 005°48'52 9.9
2017-May-03 00:40N 48°53' W 005°45'10610.0
2017-May-02 14:06N 49°48' W 003°26'610.0
2017-May-02 13:30N 49°51' W 003°18'5 9.5
2017-May-02 13:01N 49°53' W 003°11'8 9.1
2017-May-02 12:09N 49°57' W 003°01'1 9.0
2017-May-02 12:01N 49°58' W 002°59'4 8.9
2017-May-02 11:30N 49°60' W 002°53'5 8.9
2017-May-02 10:59N 50°01' W 002°46'5 9.1
2017-May-02 10:26N 50°03' W 002°39'9112.3
2017-May-02 03:03N 50°28' W 000°22'110.9
2017-May-02 02:59N 50°28' W 000°21'510.6
2017-May-02 02:30N 50°29' W 000°13'510.1
2017-May-02 02:00N 50°30' W 000°05'5 9.5
2017-May-02 01:30N 50°32' E 000°02'5 9.2
2017-May-02 01:00N 50°33' E 000°09'4 8.9
2017-May-02 00:30N 50°34' E 000°15'4 8.9
2017-May-02 00:00N 50°36' E 000°22'5 9.1
2017-May-01 23:30N 50°37' E 000°29'5 9.7
2017-May-01 23:00N 50°38' E 000°36'510.2
2017-May-01 22:30N 50°41' E 000°43'510.6
2017-May-01 22:00N 50°45' E 000°49'611.3
2017-May-01 21:30N 50°48' E 000°57'1211.6
2017-May-01 20:28N 50°56' E 001°11'511.4
2017-May-01 20:00N 50°59' E 001°18'510.7
2017-May-01 19:30N 51°02' E 001°24'510.0
2017-May-01 19:00N 51°06' E 001°30'5 9.1
2017-May-01 18:30N 51°09' E 001°35'4 8.5
2017-May-01 18:00N 51°11' E 001°41'4 8.4
2017-May-01 17:30N 51°14' E 001°46'4 7.6
2017-May-01 17:00N 51°18' E 001°48'4 7.4
2017-May-01 16:30N 51°21' E 001°52'4 7.5
2017-May-01 16:00N 51°24' E 001°56'4 7.5
2017-May-01 15:30N 51°26' E 001°59'4 8.9
2017-May-01 15:00N 51°30' E 002°04'510.1
2017-May-01 14:30N 51°34' E 002°09'1111.2
2017-May-01 13:29N 51°42' E 002°21'9410.9
2017-May-01 04:51N 52°56' E 003°57'16311.1
2017-Apr-30 14:08N 54°01' E 008°09'811.5
2017-Apr-30 13:27N 53°60' E 008°22'510.5
2017-Apr-30 13:00N 53°59' E 008°30'5 9.3
2017-Apr-30 12:30N 53°57' E 008°37'4 8.5
2017-Apr-30 12:00N 53°54' E 008°42'5 9.4
2017-Apr-30 11:30N 53°51' E 008°47'611.5
2017-Apr-30 11:00N 53°51' E 008°57'713.3
2017-Apr-30 10:31N 53°53' E 009°08'1 1.7
2017-Apr-30 10:00N 53°54' E 009°09'1 2.7
2017-Apr-30 09:30N 53°55' E 009°10'4 8.7
2017-Apr-30 09:00N 53°58' E 009°15'4 8.2
2017-Apr-30 08:30N 54°02' E 009°18'4 8.4
2017-Apr-30 08:00N 54°06' E 009°20'3 5.4
2017-Apr-30 07:22N 54°09' E 009°22'0 0.1
2017-Apr-30 06:56N 54°09' E 009°22'0 0.0
2017-Apr-30 06:25N 54°09' E 009°22'3 5.2
2017-Apr-30 05:52N 54°10' E 009°26'3 8.2
2017-Apr-30 05:27N 54°11' E 009°31'45 3.9
2017-Apr-29 17:53N 54°35' E 010°37'3 9.1
2017-Apr-29 17:30N 54°35' E 010°43'611.7
2017-Apr-29 17:00N 54°36' E 010°53'612.1
2017-Apr-29 16:30N 54°36' E 011°04'612.2
2017-Apr-29 16:00N 54°35' E 011°14'612.7
2017-Apr-29 15:30N 54°33' E 011°24'612.5
2017-Apr-29 15:00N 54°30' E 011°34'1811.8
2017-Apr-29 13:30N 54°27' E 012°04'510.1
2017-Apr-29 13:00N 54°29' E 012°11'611.8
2017-Apr-29 12:30N 54°35' E 012°14'611.6
2017-Apr-29 12:00N 54°39' E 012°21'4911.6
2017-Apr-29 07:50N 54°59' E 013°38'411.8
2017-Apr-29 07:30N 55°00' E 013°44'611.6
2017-Apr-29 06:59N 55°03' E 013°54'611.5
2017-Apr-29 06:30N 55°05' E 014°03'611.3
2017-Apr-29 06:00N 55°09' E 014°09'611.3
2017-Apr-29 05:30N 55°13' E 014°16'611.5
2017-Apr-29 05:00N 55°18' E 014°22'611.5
2017-Apr-29 04:30N 55°22' E 014°29'611.7
2017-Apr-29 04:00N 55°27' E 014°35'611.3
2017-Apr-29 03:30N 55°30' E 014°44'611.1
2017-Apr-29 03:00N 55°32' E 014°53'611.2
2017-Apr-29 02:30N 55°35' E 015°01'611.4
2017-Apr-29 02:00N 55°37' E 015°10'611.3
2017-Apr-29 01:30N 55°40' E 015°19'611.4
2017-Apr-29 01:00N 55°43' E 015°28'611.5
2017-Apr-29 00:30N 55°46' E 015°37'611.4
2017-Apr-29 00:00N 55°48' E 015°46'611.5
2017-Apr-28 23:30N 55°51' E 015°55'611.6
2017-Apr-28 23:00N 55°54' E 016°03'611.5
2017-Apr-28 22:30N 55°57' E 016°12'611.3
2017-Apr-28 22:00N 56°01' E 016°20'611.6
2017-Apr-28 21:30N 56°03' E 016°29'611.6
2017-Apr-28 21:00N 56°07' E 016°38'611.2
2017-Apr-28 20:30N 56°10' E 016°46'611.6
2017-Apr-28 20:00N 56°16' E 016°50'611.5
2017-Apr-28 19:30N 56°21' E 016°53'611.6
2017-Apr-28 19:00N 56°26' E 016°57'611.5
2017-Apr-28 18:30N 56°32' E 017°01'611.4
2017-Apr-28 18:00N 56°37' E 017°04'611.4
2017-Apr-28 17:30N 56°42' E 017°08'611.5
2017-Apr-28 16:59N 56°48' E 017°11'15311.3
2017-Apr-28 03:25N 59°04' E 019°27'511.8
2017-Apr-28 03:00N 59°08' E 019°32'611.8
2017-Apr-28 02:30N 59°13' E 019°38'611.5
2017-Apr-28 02:00N 59°18' E 019°44'611.5
2017-Apr-28 01:30N 59°23' E 019°49'811.4
2017-Apr-28 00:46N 59°30' E 019°57'311.0
2017-Apr-28 00:30N 59°33' E 019°59'610.4
2017-Apr-27 23:57N 59°38' E 019°55'611.0
2017-Apr-27 23:27N 59°42' E 019°48'511.2
2017-Apr-27 23:00N 59°46' E 019°42'611.1
2017-Apr-27 22:30N 59°50' E 019°34'611.3
2017-Apr-27 22:00N 59°54' E 019°27'611.7
2017-Apr-27 21:30N 59°59' E 019°20'611.7
2017-Apr-27 21:00N 60°04' E 019°13'611.7
2017-Apr-27 20:30N 60°08' E 019°05'611.3
2017-Apr-27 20:00N 60°13' E 019°01'611.6
2017-Apr-27 19:30N 60°19' E 019°00'611.6
2017-Apr-27 18:59N 60°25' E 019°00'  

Dump ship's entire track history